Time;durP1;ratioP1;P1;durP2;ratioP2;P2;SDS_P1;SDS_P2;PMS_P1;PMS_P2;Temp;Humidity;BMP_temperature;BMP_pressure;BME280_temperature;BME280_humidity;BME280_pressure;Samples;Min_cycle;Max_cycle;Signal;HPM_P1;HPM_P2
2022/08/15 00:00:35;;;;;;;31.88;29.90;;;21.60;87.50;;;;;;5014030;28;20723;-78
2022/08/15 00:03:03;;;;;;;44.65;42.22;;;21.60;87.30;;;;;;5014512;28;20202;-78
2022/08/15 00:05:33;;;;;;;25.17;23.83;;;21.40;88.10;;;;;;5014755;28;20177;-78
2022/08/15 00:07:59;;;;;;;24.20;22.70;;;21.30;90.70;;;;;;5013749;28;20183;-78
2022/08/15 00:10:26;;;;;;;45.63;42.80;;;21.20;91.90;;;;;;4996122;28;20199;-78
2022/08/15 00:12:52;;;;;;;115.32;109.55;;;21.10;93.00;;;;;;4995192;28;20200;-77
2022/08/15 00:15:19;;;;;;;117.53;111.63;;;21.10;94.30;;;;;;5006977;28;20184;-77
2022/08/15 00:17:47;;;;;;;101.88;96.78;;;21.10;95.00;;;;;;5007163;28;20250;-77
2022/08/15 00:20:13;;;;;;;85.40;81.07;;;21.10;95.50;;;;;;5002740;28;20230;-77
2022/08/15 00:22:50;;;;;;;52.75;50.05;;;21.20;96.70;;;;;;5002740;28;20738;-78
2022/08/15 00:25:16;;;;;;;14.90;14.05;;;21.30;96.90;;;;;;5014110;28;20175;-78
2022/08/15 00:27:42;;;;;;;9.80;9.00;;;21.20;95.70;;;;;;5013278;28;20195;-78
2022/08/15 00:30:13;;;;;;;10.00;9.23;;;21.30;95.00;;;;;;5015333;28;20196;-79
2022/08/15 00:32:39;;;;;;;11.88;10.82;;;21.30;94.80;;;;;;5021025;28;20219;-78
2022/08/15 00:35:36;;;;;;;12.55;11.55;;;21.30;95.70;;;;;;5025108;28;20220;-78
2022/08/15 00:37:56;;;;;;;14.50;13.55;;;21.40;95.70;;;;;;5010218;28;20208;-78
2022/08/15 00:40:24;;;;;;;27.10;25.30;;;21.40;95.80;;;;;;4995146;28;20180;-78
2022/08/15 00:42:50;;;;;;;14.02;13.20;;;21.40;95.30;;;;;;5011360;28;20200;-78
2022/08/15 00:45:20;;;;;;;10.10;9.38;;;21.30;97.40;;;;;;4996312;28;20563;-78
2022/08/15 00:48:41;;;;;;;12.00;11.20;;;21.20;98.70;;;;;;4995310;28;20677;-77
2022/08/15 00:50:33;;;;;;;12.50;11.77;;;21.10;99.50;;;;;;4997114;28;20183;-78
2022/08/15 00:53:03;;;;;;;13.52;12.68;;;21.20;99.30;;;;;;4993925;28;20200;-78
2022/08/15 00:55:30;;;;;;;11.23;10.50;;;21.20;99.30;;;;;;4992837;28;20271;-78
2022/08/15 00:57:56;;;;;;;11.50;10.55;;;21.20;99.10;;;;;;4991681;28;20212;-78
2022/08/15 01:00:37;;;;;;;12.30;11.55;;;21.20;99.60;;;;;;4994122;28;20180;-78
2022/08/15 01:03:09;;;;;;;11.13;10.52;;;21.30;99.90;;;;;;4996312;28;20196;-78
2022/08/15 01:05:34;;;;;;;12.30;11.60;;;21.30;99.90;;;;;;5013198;28;20195;-79
2022/08/15 01:08:01;;;;;;;12.88;12.02;;;21.40;99.90;;;;;;5010325;28;20176;-78
2022/08/15 01:10:27;;;;;;;12.27;11.63;;;21.40;99.90;;;;;;5013164;28;20186;-78
2022/08/15 01:12:53;;;;;;;14.30;13.10;;;21.50;99.90;;;;;;5012913;28;20294;-78
2022/08/15 01:15:20;;;;;;;12.75;12.02;;;21.50;99.90;;;;;;5012213;28;20371;-78
2022/08/15 01:17:46;;;;;;;11.70;11.00;;;21.60;99.90;;;;;;5001346;28;20232;-78
2022/08/15 01:20:17;;;;;;;11.88;11.07;;;21.70;99.90;;;;;;4996221;28;20180;-79
2022/08/15 01:22:59;;;;;;;11.45;10.85;;;21.70;99.90;;;;;;4994800;28;20299;-78
2022/08/15 01:25:38;;;;;;;13.18;12.20;;;21.80;99.90;;;;;;4996297;28;20180;-78
2022/08/15 01:28:09;;;;;;;14.40;13.30;;;21.90;99.90;;;;;;4993416;28;20261;-76
2022/08/15 01:31:00;;;;;;;17.48;16.35;;;21.90;99.90;;;;;;4997613;28;20716;-78
2022/08/15 01:33:28;;;;;;;17.30;16.40;;;22.00;99.90;;;;;;5012707;28;20219;-78
2022/08/15 01:35:55;;;;;;;20.88;19.60;;;22.00;99.90;;;;;;5012015;28;20176;-78
2022/08/15 01:38:29;;;;;;;20.90;19.50;;;21.90;99.90;;;;;;5010020;28;20211;-78
2022/08/15 01:41:04;;;;;;;20.05;18.77;;;22.00;99.90;;;;;;5010566;28;20612;-78
2022/08/15 01:43:36;;;;;;;21.83;20.52;;;21.90;99.90;;;;;;5013695;28;20183;-78
2022/08/15 01:46:07;;;;;;;23.17;21.88;;;22.00;99.90;;;;;;5003807;28;20234;-77
2022/08/15 01:49:01;;;;;;;18.27;17.27;;;21.90;99.90;;;;;;5011160;28;20183;-77
2022/08/15 01:51:27;;;;;;;17.05;16.05;;;22.00;99.90;;;;;;5025281;28;20204;-77
2022/08/15 01:54:01;;;;;;;17.35;16.20;;;21.90;99.90;;;;;;5028617;28;20567;-76
2022/08/15 01:56:38;;;;;;;19.08;17.80;;;21.90;99.90;;;;;;5016985;28;20180;-78
2022/08/15 01:59:07;;;;;;;17.17;15.98;;;21.90;99.90;;;;;;5002608;28;20251;-78
2022/08/15 02:02:00;;;;;;;17.88;16.77;;;21.90;99.90;;;;;;4997350;28;20607;-78
2022/08/15 02:04:32;;;;;;;18.27;16.92;;;21.90;99.90;;;;;;4996789;28;20196;-77
2022/08/15 02:07:03;;;;;;;14.15;13.15;;;21.90;99.90;;;;;;4994996;28;20188;-77
2022/08/15 02:09:30;;;;;;;14.27;13.38;;;21.90;99.90;;;;;;4997195;28;20212;-78
2022/08/15 02:12:00;;;;;;;13.13;12.23;;;21.90;99.90;;;;;;4999682;28;20234;-78
2022/08/15 02:14:27;;;;;;;13.13;11.98;;;21.90;99.90;;;;;;5027922;28;20191;-77
2022/08/15 02:16:53;;;;;;;12.32;11.45;;;21.80;99.90;;;;;;5013698;28;20207;-77
2022/08/15 02:19:19;;;;;;;11.75;10.95;;;21.90;99.90;;;;;;5021819;28;20194;-77
2022/08/15 02:21:47;;;;;;;11.43;10.32;;;21.90;99.90;;;;;;5024457;28;20199;-77
2022/08/15 02:24:17;;;;;;;11.50;10.70;;;21.90;99.90;;;;;;5021994;28;20179;-78
2022/08/15 02:26:44;;;;;;;10.55;9.85;;;21.90;99.90;;;;;;5001594;28;20252;-78
2022/08/15 02:29:09;;;;;;;11.27;10.48;;;21.90;99.90;;;;;;4996049;28;20234;-80
2022/08/15 02:34:04;;;;;;;8.52;7.97;;;21.90;99.90;;;;;;5011956;28;20203;-79
2022/08/15 02:36:32;;;;;;;8.77;8.07;;;22.00;99.90;;;;;;5014079;28;20179;-78
2022/08/15 02:38:59;;;;;;;8.15;7.55;;;21.90;99.90;;;;;;5011378;28;20185;-78
2022/08/15 02:41:31;;;;;;;8.07;7.40;;;21.90;99.90;;;;;;5013956;28;20180;-78
2022/08/15 02:43:59;;;;;;;8.57;7.93;;;21.90;99.90;;;;;;5013615;28;20266;-78
2022/08/15 02:46:27;;;;;;;8.07;7.47;;;21.90;99.90;;;;;;5012526;28;20176;-78
2022/08/15 02:48:53;;;;;;;7.85;7.00;;;21.90;99.90;;;;;;5012826;28;20294;-78
2022/08/15 02:51:20;;;;;;;7.45;6.70;;;21.90;99.90;;;;;;5012483;28;20180;-78
2022/08/15 02:53:49;;;;;;;8.88;7.20;;;22.00;99.90;;;;;;5011782;28;20303;-78
2022/08/15 02:56:20;;;;;;;7.40;6.78;;;21.90;99.90;;;;;;5005497;28;20234;-79
2022/08/15 02:58:48;;;;;;;7.85;7.00;;;21.90;99.90;;;;;;4994181;28;20220;-78
2022/08/15 03:01:14;;;;;;;7.25;6.63;;;21.90;99.90;;;;;;4992865;28;20181;-79
2022/08/15 03:03:43;;;;;;;7.38;6.78;;;21.90;99.90;;;;;;4993209;28;20200;-78
2022/08/15 03:06:12;;;;;;;7.60;6.95;;;21.90;99.90;;;;;;4992798;28;20291;-77
2022/08/15 03:08:40;;;;;;;8.48;7.68;;;21.90;99.90;;;;;;5010964;28;20279;-76
2022/08/15 03:11:07;;;;;;;7.30;6.80;;;21.80;99.90;;;;;;4993575;28;20288;-79
2022/08/15 03:13:34;;;;;;;9.18;6.78;;;21.80;99.90;;;;;;4994523;28;20215;-78
2022/08/15 03:16:04;;;;;;;7.07;6.38;;;21.80;99.90;;;;;;5007273;28;20656;-78
2022/08/15 03:18:33;;;;;;;6.78;6.22;;;21.90;99.90;;;;;;5010463;28;20212;-79
2022/08/15 03:21:01;;;;;;;7.32;6.72;;;21.80;99.90;;;;;;5013300;28;20179;-78
2022/08/15 03:23:31;;;;;;;8.18;5.90;;;21.80;99.90;;;;;;5012705;28;20621;-78
2022/08/15 03:25:59;;;;;;;6.13;5.63;;;21.80;99.90;;;;;;5012781;28;20707;-78
2022/08/15 03:28:31;;;;;;;6.20;5.65;;;21.80;99.90;;;;;;5011193;28;20214;-78
2022/08/15 03:31:00;;;;;;;7.15;6.45;;;21.80;99.90;;;;;;5012014;28;20648;-74
2022/08/15 03:33:28;;;;;;;8.52;7.28;;;21.80;99.90;;;;;;5003825;28;20216;-74
2022/08/15 03:35:54;;;;;;;7.97;7.22;;;21.70;99.90;;;;;;4993134;28;20184;-75
2022/08/15 03:38:20;;;;;;;8.30;7.65;;;21.80;99.90;;;;;;4991006;28;20208;-73
2022/08/15 03:40:48;;;;;;;8.35;7.78;;;21.70;99.90;;;;;;4990118;28;20676;-73
2022/08/15 03:43:20;;;;;;;11.40;10.40;;;21.70;99.90;;;;;;4990951;28;20600;-73
2022/08/15 03:45:51;;;;;;;15.75;14.63;;;21.70;99.90;;;;;;4991524;28;20201;-73
2022/08/15 03:48:18;;;;;;;16.02;14.70;;;21.70;99.90;;;;;;4990381;28;20227;-74
2022/08/15 03:50:45;;;;;;;20.42;19.33;;;21.70;99.90;;;;;;4991476;28;20228;-74
2022/08/15 03:53:11;;;;;;;49.15;46.53;;;21.70;99.90;;;;;;4991294;28;20432;-73
2022/08/15 03:55:38;;;;;;;10.98;8.45;;;21.70;99.90;;;;;;4992213;28;20199;-73
2022/08/15 03:58:05;;;;;;;16.23;14.90;;;21.70;99.90;;;;;;4991245;28;20211;-71
2022/08/15 04:00:37;;;;;;;22.95;21.35;;;21.70;99.90;;;;;;4992851;28;20180;-71
2022/08/15 04:03:12;;;;;;;25.65;24.23;;;21.70;99.90;;;;;;4992512;28;20207;-71
2022/08/15 04:05:40;;;;;;;33.55;31.60;;;21.70;99.90;;;;;;4992723;28;20195;-71
2022/08/15 04:08:09;;;;;;;30.08;28.42;;;21.70;99.90;;;;;;4984322;28;20235;-72
2022/08/15 04:10:36;;;;;;;27.90;26.00;;;21.60;99.90;;;;;;4974701;28;20249;-71
2022/08/15 04:13:06;;;;;;;98.40;92.90;;;21.60;99.90;;;;;;4971448;28;20203;-71
2022/08/15 04:15:33;;;;;;;79.30;74.93;;;21.50;99.90;;;;;;4987837;28;20184;-72
2022/08/15 04:18:00;;;;;;;80.13;75.40;;;21.50;99.90;;;;;;4989800;28;20212;-72
2022/08/15 04:20:28;;;;;;;178.40;168.35;;;21.40;99.90;;;;;;4992263;28;20271;-72
2022/08/15 04:22:53;;;;;;;223.20;210.95;;;21.50;99.90;;;;;;4989914;28;20287;-72
2022/08/15 04:25:27;;;;;;;276.92;261.58;;;21.50;99.90;;;;;;4991023;28;20268;-72
2022/08/15 04:27:56;;;;;;;110.43;104.47;;;21.50;99.90;;;;;;4991071;28;20275;-72
2022/08/15 04:30:26;;;;;;;102.85;97.45;;;21.50;99.90;;;;;;4991325;28;20250;-72
2022/08/15 04:32:53;;;;;;;89.88;85.00;;;21.50;99.90;;;;;;4990560;28;20212;-72
2022/08/15 04:35:19;;;;;;;95.53;89.93;;;21.50;99.90;;;;;;4992062;28;20184;-73
2022/08/15 04:37:46;;;;;;;67.45;63.50;;;21.50;99.90;;;;;;4990159;28;20220;-71
2022/08/15 04:40:14;;;;;;;98.72;93.18;;;21.50;99.90;;;;;;4991702;28;20177;-72
2022/08/15 04:42:55;;;;;;;258.75;244.45;;;21.40;99.90;;;;;;4991790;28;20685;-73
2022/08/15 04:45:25;;;;;;;437.35;411.52;;;21.50;99.90;;;;;;4989991;28;20188;-72
2022/08/15 04:47:51;;;;;;;219.20;207.32;;;21.50;99.90;;;;;;4989775;28;20593;-73
2022/08/15 04:50:17;;;;;;;385.58;363.13;;;21.40;99.90;;;;;;4992181;28;20644;-73
2022/08/15 04:52:48;;;;;;;366.80;346.05;;;21.40;99.90;;;;;;4991060;28;20227;-72
2022/08/15 04:55:15;;;;;;;348.63;329.35;;;21.40;99.90;;;;;;4991785;28;20200;-73
2022/08/15 04:57:42;;;;;;;447.67;420.45;;;21.40;99.90;;;;;;4989537;28;20211;-72
2022/08/15 05:00:11;;;;;;;358.13;338.15;;;21.50;99.90;;;;;;4989654;28;20180;-72
2022/08/15 05:02:38;;;;;;;389.05;366.60;;;21.50;99.90;;;;;;4990522;28;20622;-71
2022/08/15 05:05:08;;;;;;;405.35;382.50;;;21.40;99.90;;;;;;4990467;28;20207;-72
2022/08/15 05:07:34;;;;;;;372.73;351.40;;;21.50;99.90;;;;;;4988625;28;20238;-72
2022/08/15 05:10:01;;;;;;;457.17;429.50;;;21.40;99.90;;;;;;4991710;28;20191;-72
2022/08/15 05:12:28;;;;;;;416.52;391.77;;;21.40;99.90;;;;;;4991177;28;20204;-72
2022/08/15 05:14:57;;;;;;;185.25;175.48;;;21.50;99.90;;;;;;4991041;28;20188;-72
2022/08/15 05:17:23;;;;;;;243.15;230.10;;;21.50;99.90;;;;;;4973138;28;20287;-72
2022/08/15 05:19:49;;;;;;;206.77;195.98;;;21.50;99.90;;;;;;4990386;28;20184;-72
2022/08/15 05:22:19;;;;;;;164.40;155.63;;;21.50;99.90;;;;;;4990753;28;20207;-73
2022/08/15 05:24:45;;;;;;;216.70;205.05;;;21.50;99.90;;;;;;4991210;28;20227;-73
2022/08/15 05:27:10;;;;;;;185.60;176.00;;;21.50;99.90;;;;;;4993595;28;20177;-73
2022/08/15 05:29:37;;;;;;;125.13;118.70;;;21.50;99.90;;;;;;4994314;28;20184;-72
2022/08/15 05:32:06;;;;;;;194.23;184.07;;;21.50;99.90;;;;;;4995352;28;20569;-74
2022/08/15 05:34:32;;;;;;;116.93;110.82;;;21.60;99.90;;;;;;4994129;28;20653;-73
2022/08/15 05:36:59;;;;;;;50.95;48.28;;;21.60;99.90;;;;;;4993634;28;20219;-72
2022/08/15 05:39:29;;;;;;;21.77;20.42;;;21.80;99.90;;;;;;4995000;28;20287;-72
2022/08/15 05:41:58;;;;;;;30.02;28.35;;;21.80;99.90;;;;;;4998258;28;20472;-83
2022/08/15 05:45:14;;;;;;;22.65;21.42;;;22.00;99.90;;;;;;5009196;28;20208;-82
2022/08/15 05:47:58;;;;;;;16.10;15.20;;;22.00;99.90;;;;;;4978618;28;20220;-87
2022/08/15 05:50:31;;;;;;;19.95;18.80;;;22.10;99.90;;;;;;4982985;28;20219;-86
2022/08/15 05:53:22;;;;;;;21.20;20.13;;;22.10;99.90;;;;;;4978159;28;20621;-83
2022/08/15 05:56:05;;;;;;;16.83;15.57;;;22.20;99.90;;;;;;4977988;28;20251;-84
2022/08/15 05:58:42;;;;;;;16.85;15.85;;;22.20;99.90;;;;;;4976661;28;20279;-84
2022/08/15 06:01:16;;;;;;;16.25;14.88;;;22.30;99.90;;;;;;4978461;28;20197;-84
2022/08/15 06:03:56;;;;;;;17.23;16.33;;;22.30;99.90;;;;;;4978240;28;20231;-84
2022/08/15 06:06:28;;;;;;;14.27;13.52;;;22.30;99.90;;;;;;4982418;28;20185;-84
2022/08/15 06:09:04;;;;;;;15.85;14.80;;;22.20;99.90;;;;;;4977245;28;20188;-82
2022/08/15 06:11:43;;;;;;;14.23;13.43;;;22.20;99.90;;;;;;4977493;28;20537;-84
2022/08/15 06:14:28;;;;;;;18.77;17.73;;;22.20;99.90;;;;;;4979512;28;20654;-82
2022/08/15 06:17:01;;;;;;;17.13;16.25;;;22.10;99.90;;;;;;4978723;28;20195;-84
2022/08/15 06:19:32;;;;;;;17.40;16.45;;;22.10;99.90;;;;;;4985318;28;20263;-85
2022/08/15 06:22:17;;;;;;;15.88;14.90;;;22.20;99.90;;;;;;4982037;28;20196;-84
2022/08/15 06:25:08;;;;;;;13.93;12.65;;;22.40;99.90;;;;;;4980983;28;20553;-83
2022/08/15 06:28:05;;;;;;;12.05;10.90;;;22.60;99.90;;;;;;4980940;28;20184;-82
2022/08/15 06:30:47;;;;;;;11.65;10.95;;;22.60;99.90;;;;;;4979861;28;20188;-82
2022/08/15 06:33:21;;;;;;;16.63;15.60;;;22.60;99.90;;;;;;4980311;28;20868;-83
2022/08/15 06:36:06;;;;;;;17.80;16.70;;;22.70;99.90;;;;;;4976324;28;20188;-84
2022/08/15 06:39:07;;;;;;;16.38;15.55;;;22.70;99.90;;;;;;4975445;28;20221;-84
2022/08/15 06:41:58;;;;;;;17.30;16.30;;;22.60;99.90;;;;;;4992347;28;20215;-84
2022/08/15 06:44:26;;;;;;;16.33;15.38;;;22.70;99.90;;;;;;4976330;28;20562;-83
2022/08/15 06:46:54;;;;;;;16.00;15.10;;;22.70;99.90;;;;;;4975562;28;20173;-85
2022/08/15 06:49:22;;;;;;;15.85;15.05;;;22.70;99.90;;;;;;4975818;28;20208;-84
2022/08/15 06:51:48;;;;;;;18.50;17.38;;;22.60;99.90;;;;;;4975714;28;20181;-84
2022/08/15 06:54:23;;;;;;;18.20;17.30;;;22.60;99.90;;;;;;4976817;28;20181;-86
2022/08/15 06:57:08;;;;;;;15.00;14.15;;;22.50;99.90;;;;;;4974839;28;20191;-84
2022/08/15 06:59:55;;;;;;;18.73;17.80;;;22.60;99.90;;;;;;4980196;28;20188;-82
2022/08/15 07:02:21;;;;;;;17.88;16.77;;;22.80;99.90;;;;;;4989407;28;20701;-86
2022/08/15 07:05:27;;;;;;;7.93;7.43;;;23.00;99.90;;;;;;4991668;28;20177;-85
2022/08/15 07:08:11;;;;;;;6.47;6.18;;;23.20;99.90;;;;;;4973119;28;20666;-86
2022/08/15 07:10:54;;;;;;;5.90;5.55;;;23.20;99.90;;;;;;4977903;28;20185;-86
2022/08/15 07:13:32;;;;;;;6.43;5.00;;;23.00;99.90;;;;;;4976264;28;20253;-85
2022/08/15 07:16:16;;;;;;;7.53;5.07;;;23.00;99.90;;;;;;4976287;28;20204;-84
2022/08/15 07:18:46;;;;;;;6.38;5.97;;;23.10;99.90;;;;;;4976946;28;20216;-83
2022/08/15 07:21:18;;;;;;;11.75;10.93;;;23.20;99.90;;;;;;4978806;28;20521;-82
2022/08/15 07:24:31;;;;;;;11.82;11.23;;;23.30;99.90;;;;;;4978471;28;20201;-84
2022/08/15 07:27:09;;;;;;;6.93;6.55;;;23.60;99.90;;;;;;4970311;28;20246;-84
2022/08/15 07:29:41;;;;;;;5.82;5.45;;;24.00;99.90;;;;;;4976410;28;20220;-82
2022/08/15 07:32:12;;;;;;;5.50;5.10;;;24.10;99.90;;;;;;4979543;28;20212;-84
2022/08/15 07:35:13;;;;;;;6.28;4.53;;;24.30;99.90;;;;;;4975583;28;20196;-82
2022/08/15 07:37:41;;;;;;;9.23;8.73;;;24.80;99.90;;;;;;4974609;28;20212;-84
2022/08/15 07:40:14;;;;;;;11.90;11.10;;;25.00;99.90;;;;;;4975427;28;20680;-83
2022/08/15 07:42:42;;;;;;;11.68;10.88;;;24.90;99.90;;;;;;4976986;28;20286;-83
2022/08/15 07:45:34;;;;;;;10.75;10.00;;;24.50;99.90;;;;;;4979144;28;20271;-85
2022/08/15 07:48:24;;;;;;;12.60;11.93;;;24.50;99.90;;;;;;4980720;28;20196;-83
2022/08/15 07:51:09;;;;;;;10.32;9.82;;;24.70;99.90;;;;;;4985536;28;20664;-84
2022/08/15 07:53:53;;;;;;;9.73;9.18;;;24.90;99.90;;;;;;4980301;28;20560;-84
2022/08/15 07:56:20;;;;;;;7.47;6.97;;;25.00;99.90;;;;;;4979565;28;20195;-84
2022/08/15 07:58:52;;;;;;;7.75;7.15;;;24.90;99.90;;;;;;4978742;28;20267;-82
2022/08/15 08:01:24;;;;;;;8.95;8.25;;;24.80;99.90;;;;;;4977703;28;20650;-86
2022/08/15 08:04:09;;;;;;;7.70;7.38;;;24.70;99.90;;;;;;4974924;28;20268;-86
2022/08/15 08:06:40;;;;;;;5.55;5.15;;;25.30;99.90;;;;;;4974426;28;20243;-82
2022/08/15 08:09:15;;;;;;;5.40;5.03;;;25.40;99.90;;;;;;4973565;28;20189;-86
2022/08/15 08:11:50;;;;;;;7.43;7.05;;;25.30;99.90;;;;;;4974120;28;20211;-84
2022/08/15 08:14:41;;;;;;;10.68;10.10;;;25.50;99.90;;;;;;4974047;28;20189;-86
2022/08/15 08:17:13;;;;;;;13.50;12.70;;;26.40;99.90;;;;;;4972854;28;20217;-82
2022/08/15 08:20:03;;;;;;;4.78;4.57;;;27.40;99.90;;;;;;4974032;28;20181;-82
2022/08/15 08:23:18;;;;;;;14.27;13.40;;;27.90;98.40;;;;;;4984254;28;20215;-83
2022/08/15 08:26:06;;;;;;;15.68;14.82;;;28.50;96.10;;;;;;4973190;28;20217;-83
2022/08/15 08:28:46;;;;;;;10.32;9.68;;;29.20;95.30;;;;;;4975810;28;20276;-84
2022/08/15 08:31:36;;;;;;;24.63;23.30;;;29.80;93.30;;;;;;4978079;28;20192;-84
2022/08/15 08:34:08;;;;;;;36.60;34.53;;;30.20;91.00;;;;;;5046020;23;20249;-76
2022/08/15 08:36:50;;;;;;;36.95;35.00;;;30.30;90.50;;;;;;5034076;28;20278;-77
2022/08/15 08:39:31;;;;;;;35.10;33.08;;;30.00;90.00;;;;;;5034622;28;20194;-77
2022/08/15 08:42:03;;;;;;;39.13;37.13;;;29.40;89.80;;;;;;5034780;28;20655;-77
2022/08/15 08:44:32;;;;;;;44.80;42.50;;;29.00;91.00;;;;;;5015246;28;20203;-77
2022/08/15 08:47:21;;;;;;;42.13;39.95;;;29.30;90.20;;;;;;5014754;28;20187;-77
2022/08/15 08:50:10;;;;;;;39.53;37.55;;;29.50;89.60;;;;;;5002757;28;20680;-76
2022/08/15 08:53:00;;;;;;;42.42;40.40;;;29.40;88.50;;;;;;5011866;28;20204;-75
2022/08/15 08:55:31;;;;;;;14.40;13.70;;;27.90;90.90;;;;;;5010566;28;20186;-76
2022/08/15 08:58:04;;;;;;;5.47;5.18;;;27.00;92.30;;;;;;5009722;28;20699;-76
2022/08/15 09:00:46;;;;;;;11.18;10.32;;;26.70;93.30;;;;;;5012130;28;20176;-77
2022/08/15 09:03:25;;;;;;;13.27;12.65;;;26.80;93.40;;;;;;5016760;28;20576;-77
2022/08/15 09:05:56;;;;;;;16.33;15.30;;;27.40;93.00;;;;;;5015307;28;20554;-76
2022/08/15 09:08:51;;;;;;;12.30;11.68;;;27.30;92.60;;;;;;5014561;28;20191;-76
2022/08/15 09:11:24;;;;;;;5.63;5.15;;;28.00;91.50;;;;;;5014968;28;20188;-75
2022/08/15 09:13:51;;;;;;;9.40;8.82;;;28.40;90.10;;;;;;5013335;28;20211;-77
2022/08/15 09:16:25;;;;;;;11.98;11.38;;;28.30;88.60;;;;;;5013845;28;20570;-76
2022/08/15 09:19:12;;;;;;;4.43;4.18;;;27.90;88.40;;;;;;5013563;28;20265;-77
2022/08/15 09:21:42;;;;;;;6.00;5.68;;;27.40;90.80;;;;;;5013941;28;20199;-77
2022/08/15 09:24:09;;;;;;;7.68;7.10;;;28.10;90.90;;;;;;5014433;28;20258;-76
2022/08/15 09:27:07;;;;;;;14.85;14.02;;;29.10;89.20;;;;;;5012788;28;20191;-75
2022/08/15 09:29:37;;;;;;;41.67;39.70;;;30.00;86.30;;;;;;5011844;28;20202;-77
2022/08/15 09:32:27;;;;;;;56.15;53.25;;;30.60;83.80;;;;;;5014028;28;20180;-79
2022/08/15 09:35:18;;;;;;;31.73;30.13;;;30.40;84.00;;;;;;5013724;28;20191;-76
2022/08/15 09:38:02;;;;;;;11.38;10.68;;;30.70;80.70;;;;;;5012139;28;20266;-76
2022/08/15 09:40:52;;;;;;;11.55;10.85;;;30.70;79.70;;;;;;5014365;28;20184;-76
2022/08/15 09:43:36;;;;;;;14.10;13.20;;;30.40;80.40;;;;;;5014171;28;20195;-76
2022/08/15 09:46:40;;;;;;;16.52;15.57;;;30.30;81.20;;;;;;5014284;28;20331;-76
2022/08/15 09:49:06;;;;;;;24.95;23.70;;;30.70;78.60;;;;;;5012453;28;20691;-76
2022/08/15 09:52:12;;;;;;;29.45;27.88;;;31.10;79.20;;;;;;5016053;28;20182;-76
2022/08/15 09:54:49;;;;;;;49.72;47.33;;;31.70;77.40;;;;;;5015779;28;20216;-76
2022/08/15 09:57:39;;;;;;;18.05;17.17;;;32.40;76.00;;;;;;5014007;28;20210;-76
2022/08/15 10:00:21;;;;;;;15.25;14.43;;;32.40;71.70;;;;;;5014092;28;20266;-76
2022/08/15 10:02:58;;;;;;;10.35;9.82;;;31.90;72.30;;;;;;5014599;28;20202;-76
2022/08/15 10:05:47;;;;;;;10.85;10.27;;;31.90;72.50;;;;;;5013431;28;20189;-77
2022/08/15 10:08:15;;;;;;;19.17;18.27;;;31.30;72.90;;;;;;5013594;28;20344;-77
2022/08/15 10:10:54;;;;;;;28.23;26.92;;;31.10;73.50;;;;;;5013756;28;20210;-76
2022/08/15 10:13:26;;;;;;;30.85;28.58;;;31.00;74.60;;;;;;5015298;28;20208;-77
2022/08/15 10:15:53;;;;;;;8.00;7.60;;;31.20;74.00;;;;;;5017146;28;20184;-77
2022/08/15 10:18:22;;;;;;;9.40;8.85;;;31.20;70.70;;;;;;5016078;28;20211;-79
2022/08/15 10:20:56;;;;;;;7.88;7.57;;;31.60;70.90;;;;;;5017058;28;20652;-77
2022/08/15 10:23:43;;;;;;;9.70;9.20;;;31.50;70.10;;;;;;5016881;28;20203;-77
2022/08/15 10:26:30;;;;;;;5.07;4.68;;;31.90;69.60;;;;;;5016403;28;20214;-76
2022/08/15 10:29:05;;;;;;;4.40;4.13;;;32.00;68.40;;;;;;5014545;28;20180;-77
2022/08/15 10:31:43;;;;;;;6.68;6.20;;;32.80;67.20;;;;;;5018087;28;20187;-77
2022/08/15 10:34:25;;;;;;;5.38;5.07;;;33.50;65.30;;;;;;5016966;28;20219;-76
2022/08/15 10:37:15;;;;;;;4.95;4.68;;;33.50;63.80;;;;;;5015459;28;20237;-77
2022/08/15 10:40:01;;;;;;;9.13;8.60;;;33.80;63.90;;;;;;5016662;28;20186;-76
2022/08/15 10:42:49;;;;;;;76.35;72.78;;;34.70;61.40;;;;;;5018253;28;20250;-76
2022/08/15 10:45:19;;;;;;;136.77;130.32;;;35.50;59.80;;;;;;5021404;28;20267;-76
2022/08/15 10:48:24;;;;;;;149.63;142.38;;;35.70;58.90;;;;;;5018629;28;20644;-77
2022/08/15 10:51:02;;;;;;;163.15;155.48;;;35.10;58.30;;;;;;5016945;28;20258;-75
2022/08/15 10:54:00;;;;;;;192.60;183.40;;;34.80;58.40;;;;;;5016935;28;20219;-77
2022/08/15 10:56:33;;;;;;;152.93;145.48;;;33.70;59.00;;;;;;5017000;28;20211;-76
2022/08/15 10:59:21;;;;;;;142.13;135.38;;;33.50;60.00;;;;;;5015110;28;20211;-77
2022/08/15 11:01:47;;;;;;;163.25;155.45;;;33.70;59.30;;;;;;5017041;28;20176;-76
2022/08/15 11:04:34;;;;;;;115.97;110.45;;;33.60;57.50;;;;;;5015472;28;20202;-77
2022/08/15 11:07:02;;;;;;;89.93;85.65;;;32.90;59.50;;;;;;5015120;28;20768;-76
2022/08/15 11:09:28;;;;;;;94.55;90.03;;;32.90;60.80;;;;;;5015390;28;20183;-77
2022/08/15 11:12:05;;;;;;;91.22;86.80;;;33.20;59.90;;;;;;5016646;28;20195;-76
2022/08/15 11:14:38;;;;;;;97.50;93.00;;;33.50;60.30;;;;;;5016615;28;20881;-76
2022/08/15 11:17:14;;;;;;;104.80;99.80;;;33.40;60.20;;;;;;5016295;28;20180;-77
2022/08/15 11:19:44;;;;;;;111.82;106.57;;;33.30;59.80;;;;;;5016693;28;20199;-76
2022/08/15 11:22:17;;;;;;;164.65;156.55;;;33.70;58.20;;;;;;5016238;28;20214;-77
2022/08/15 11:24:56;;;;;;;181.45;172.55;;;34.80;57.70;;;;;;5017433;28;20176;-75
2022/08/15 11:27:24;;;;;;;236.07;224.80;;;35.60;55.40;;;;;;5018015;28;20237;-76
2022/08/15 11:29:57;;;;;;;182.80;173.20;;;36.10;53.50;;;;;;5018906;28;20195;-77
2022/08/15 11:32:31;;;;;;;138.45;131.65;;;36.50;53.30;;;;;;5017411;28;20226;-77
2022/08/15 11:35:04;;;;;;;161.00;152.98;;;35.90;53.00;;;;;;5017050;28;20183;-78
2022/08/15 11:37:37;;;;;;;115.35;109.85;;;35.90;54.10;;;;;;5015416;28;20767;-78
2022/08/15 11:40:18;;;;;;;157.63;150.20;;;35.60;53.40;;;;;;5016609;28;20905;-77
2022/08/15 11:42:46;;;;;;;122.65;116.88;;;35.10;53.90;;;;;;5016071;28;20200;-77
2022/08/15 11:45:20;;;;;;;100.40;95.55;;;35.90;52.50;;;;;;5015252;28;20187;-77
2022/08/15 11:47:49;;;;;;;126.70;120.60;;;36.00;52.40;;;;;;5016149;28;20210;-77
2022/08/15 11:50:36;;;;;;;214.77;204.45;;;34.80;54.50;;;;;;5015228;28;20219;-77
2022/08/15 11:53:08;;;;;;;233.77;222.52;;;34.60;53.80;;;;;;5015925;28;20203;-77
2022/08/15 11:55:45;;;;;;;233.45;222.15;;;34.90;54.50;;;;;;5013164;28;20191;-77
2022/08/15 11:58:11;;;;;;;237.10;225.60;;;34.30;55.00;;;;;;5018460;28;20219;-78
2022/08/15 12:00:43;;;;;;;191.13;182.00;;;34.40;54.40;;;;;;5022846;28;20183;-78
2022/08/15 12:03:56;;;;;;;239.35;227.57;;;34.60;53.70;;;;;;5031732;28;20192;-76
2022/08/15 12:06:28;;;;;;;242.32;230.45;;;34.50;55.60;;;;;;5008274;28;20188;-76
2022/08/15 12:09:03;;;;;;;205.38;195.50;;;35.00;54.00;;;;;;5013519;28;20194;-77
2022/08/15 12:11:29;;;;;;;145.00;138.05;;;35.60;53.10;;;;;;5013296;28;20552;-77
2022/08/15 12:13:59;;;;;;;88.05;83.82;;;36.20;51.70;;;;;;5014105;28;20619;-77
2022/08/15 12:16:33;;;;;;;104.03;99.18;;;36.40;51.20;;;;;;5029594;28;20194;-77
2022/08/15 12:19:34;;;;;;;72.63;69.13;;;37.20;50.90;;;;;;5014134;28;20294;-78
2022/08/15 12:22:07;;;;;;;53.33;50.75;;;37.70;49.60;;;;;;5013044;28;20358;-77
2022/08/15 12:24:35;;;;;;;54.67;52.03;;;37.80;49.40;;;;;;5014637;28;20179;-76
2022/08/15 12:27:01;;;;;;;46.22;43.92;;;37.40;48.30;;;;;;5012584;28;20262;-77
2022/08/15 12:29:31;;;;;;;41.72;39.72;;;37.50;48.50;;;;;;5013088;28;20233;-77
2022/08/15 12:31:58;;;;;;;46.00;43.85;;;37.20;48.20;;;;;;5013597;28;20180;-77
2022/08/15 12:34:36;;;;;;;47.58;45.08;;;37.20;49.70;;;;;;5014951;28;20199;-77
2022/08/15 12:37:07;;;;;;;37.92;35.75;;;36.40;49.90;;;;;;5013354;28;20207;-77
2022/08/15 12:39:54;;;;;;;52.85;50.40;;;35.30;51.60;;;;;;5013708;28;20179;-77
2022/08/15 12:42:32;;;;;;;64.25;61.03;;;35.90;50.90;;;;;;5012832;28;20219;-77
2022/08/15 12:45:01;;;;;;;59.08;56.17;;;35.00;50.00;;;;;;5013375;28;20223;-77
2022/08/15 12:47:30;;;;;;;102.57;97.13;;;33.80;52.20;;;;;;5014933;28;20195;-76
2022/08/15 12:49:56;;;;;;;89.90;85.70;;;34.30;52.90;;;;;;5014221;28;20210;-76
2022/08/15 12:52:22;;;;;;;90.10;85.90;;;34.80;50.90;;;;;;5014598;28;20218;-77
2022/08/15 12:54:51;;;;;;;77.90;74.18;;;36.10;51.20;;;;;;5015235;28;20183;-78
2022/08/15 12:57:17;;;;;;;51.33;48.72;;;37.40;49.10;;;;;;5015413;28;20219;-76
2022/08/15 12:59:43;;;;;;;41.88;39.65;;;37.70;47.60;;;;;;5019351;28;20422;-77
2022/08/15 13:02:11;;;;;;;50.70;48.17;;;36.50;47.90;;;;;;5017017;28;20191;-76
2022/08/15 13:04:44;;;;;;;54.00;51.35;;;35.70;49.90;;;;;;5015539;28;20721;-77
2022/08/15 13:07:12;;;;;;;44.75;42.45;;;36.50;49.00;;;;;;5013303;28;20195;-77